sensor_id;sensor_type;location;lat;lon;timestamp;pressure;altitude;pressure_sealevel;temperature;humidity
15558;BME280;7880;50.110;9.372;2022-09-03T00:04:23;15.403735262487317;;;15.187;56.65960633645069
15558;BME280;7880;50.110;9.372;2022-09-03T00:09:23;15.398692678869702;;;15.187;57.28506391559913
15558;BME280;7880;50.110;9.372;2022-09-03T00:14:23;15.403735262487317;;;15.187;57.247866385851474
15558;BME280;7880;50.110;9.372;2022-09-03T00:19:27;15.267585606966168;;;15.062;57.47142088048001
15558;BME280;7880;50.110;9.372;2022-09-03T00:24:55;15.348266858700663;;;15.125;57.603507992557496
15558;BME280;7880;50.110;9.372;2022-09-03T00:30:00;15.21211728961789;;;15.0;58.286456310278346
15558;BME280;7880;50.110;9.372;2022-09-03T00:35:03;15.227245009038597;;;15.0;57.891747335190914
15558;BME280;7880;50.110;9.372;2022-09-03T00:39:48;15.222202435607324;;;15.0;57.87547382497681
15558;BME280;7880;50.110;9.372;2022-09-03T00:45:10;15.10118076056824;;;14.937;58.05667664718839
15558;BME280;7880;50.110;9.372;2022-09-03T00:50:07;15.217159862467089;;;15.0;58.19051888978922
15558;BME280;7880;50.110;9.372;2022-09-03T00:55:07;15.075967932702042;;;14.937;58.359944125347056
15558;BME280;7880;50.110;9.372;2022-09-03T01:00:08;15.010414614301407;;;14.875;58.46888884430076
15558;BME280;7880;50.110;9.372;2022-09-03T01:05:19;15.23733015677426;;;15.0;58.24493493224555
15558;BME280;7880;50.110;9.372;2022-09-03T01:10:21;15.227245009038597;;;15.062;58.07344447660499
15558;BME280;7880;50.110;9.372;2022-09-03T01:15:28;15.15160643812851;;;14.937;58.262136829685204
15558;BME280;7880;50.110;9.372;2022-09-03T01:20:31;15.171776717301691;;;14.937;59.064460696694375
15558;BME280;7880;50.110;9.372;2022-09-03T01:25:40;15.096138194412925;;;14.875;58.98586810605933
15558;BME280;7880;50.110;9.372;2022-09-03T01:30:30;15.081010497693205;;;14.812;58.92635831671574
15558;BME280;7880;50.110;9.372;2022-09-03T01:35:37;15.040669985912974;;;14.875;59.1646345727579
15558;BME280;7880;50.110;9.372;2022-09-03T01:40:37;14.990244372381131;;;14.75;59.37563642699949
15558;BME280;7880;50.110;9.372;2022-09-03T01:45:50;15.10118076056824;;;14.875;59.59493045105727
15558;BME280;7880;50.110;9.372;2022-09-03T01:50:52;14.975116693996824;;;14.812;59.914030943552184
15558;BME280;7880;50.110;9.372;2022-09-03T01:55:59;14.849052809324348;;;14.687;59.95543153908326
15558;BME280;7880;50.110;9.372;2022-09-03T02:01:00;14.929733674559975;;;14.75;59.847597376032944
15558;BME280;7880;50.110;9.372;2022-09-03T02:05:58;14.919648562330986;;;14.687;60.17262996355491
15558;BME280;7880;50.110;9.372;2022-09-03T02:11:04;14.919648562330986;;;14.687;60.15128265150785
15558;BME280;7880;50.110;9.372;2022-09-03T02:16:11;14.798627306387061;;;14.562;60.1982061449842
15558;BME280;7880;50.110;9.372;2022-09-03T02:21:07;14.74315928677097;;;14.562;60.94734801079932
15558;BME280;7880;50.110;9.372;2022-09-03T02:26:18;14.753244378627278;;;14.5;60.905234041869946
15558;BME280;7880;50.110;9.372;2022-09-03T02:31:14;14.627180814096937;;;14.375;60.76500455713699
15558;BME280;7880;50.110;9.372;2022-09-03T02:36:25;14.622138275299221;;;14.437;61.324567785916
15558;BME280;7880;50.110;9.372;2022-09-03T02:41:23;14.54145769411698;;;14.312;61.70381979344204
15558;BME280;7880;50.110;9.372;2022-09-03T02:46:33;14.561627832427622;;;14.375;61.80623473894407
15558;BME280;7880;50.110;9.372;2022-09-03T02:51:32;14.496074899943778;;;14.187;61.96236204376821
15558;BME280;7880;50.110;9.372;2022-09-03T02:56:36;14.480947307124733;;;14.187;62.13200474464734
15558;BME280;7880;50.110;9.372;2022-09-03T03:01:41;14.455734658247092;;;14.187;62.21579419175885
15558;BME280;7880;50.110;9.372;2022-09-03T03:06:42;14.420436962042004;;;14.125;62.655897797329516
15558;BME280;7880;50.110;9.372;2022-09-03T03:11:51;14.339756567124278;;;14.062;62.99729176232465
15558;BME280;7880;50.110;9.372;2022-09-03T03:16:50;14.405309382319682;;;14.062;62.660330969313605
15558;BME280;7880;50.110;9.372;2022-09-03T03:21:52;14.364969182532514;;;14.062;62.78577174266917
15558;BME280;7880;50.110;9.372;2022-09-03T03:26:58;14.364969182532514;;;14.125;63.21181727908771
15558;BME280;7880;50.110;9.372;2022-09-03T03:31:59;14.420436962042004;;;14.187;62.77841170225461
15558;BME280;7880;50.110;9.372;2022-09-03T03:37:02;14.334714044915746;;;14.125;63.33778557499051
15558;BME280;7880;50.110;9.372;2022-09-03T03:42:05;14.475904776767129;;;14.25;63.10132315354877
15558;BME280;7880;50.110;9.372;2022-09-03T03:47:08;14.410351908602753;;;14.187;62.93760366945781
15558;BME280;7880;50.110;9.372;2022-09-03T03:52:11;14.400266856327653;;;14.187;62.83580416875255
15558;BME280;7880;50.110;9.372;2022-09-03T03:57:20;14.511202495382168;;;14.25;63.34848399558982
15558;BME280;7880;50.110;9.372;2022-09-03T04:02:18;14.455734658247092;;;14.312;62.753870648199495
15558;BME280;7880;50.110;9.372;2022-09-03T04:07:32;14.390181805216708;;;14.187;62.96835508608676
15558;BME280;7880;50.110;9.372;2022-09-03T04:12:30;14.35992665886879;;;14.187;62.8067756207518
15558;BME280;7880;50.110;9.372;2022-09-03T04:17:27;14.521287560462952;;;14.312;62.821688270224854
15558;BME280;7880;50.110;9.372;2022-09-03T04:22:31;14.445649600733304;;;14.312;62.588133720358556
15558;BME280;7880;50.110;9.372;2022-09-03T04:27:36;14.465819716925035;;;14.25;63.01016353547759
15558;BME280;7880;50.110;9.372;2022-09-03T04:32:53;14.491032368713059;;;14.312;62.93709205664933
15558;BME280;7880;50.110;9.372;2022-09-03T04:37:41;14.491032368713059;;;14.312;62.38301712182105
15558;BME280;7880;50.110;9.372;2022-09-03T04:42:43;14.581797975394874;;;14.375;62.53220105425729
15558;BME280;7880;50.110;9.372;2022-09-03T04:47:55;14.415394435176859;;;14.25;67.05260442060057
15558;BME280;7880;50.110;9.372;2022-09-03T04:52:51;14.248991211899556;;;14.0;73.20405191852987
15558;BME280;7880;50.110;9.372;2022-09-03T04:57:55;14.082588305562968;;;13.75;78.20063300436252
15558;BME280;7880;50.110;9.372;2022-09-03T05:02:59;13.94139820933924;;;13.625;78.58978176165552
15558;BME280;7880;50.110;9.372;2022-09-03T05:08:02;13.95652570873499;;;13.562;79.40140116640094
15558;BME280;7880;50.110;9.372;2022-09-03T05:13:11;13.890973230270902;;;13.562;80.55416816215306
15558;BME280;7880;50.110;9.372;2022-09-03T05:18:09;13.845590773993171;;;13.5;81.44376546442027
15558;BME280;7880;50.110;9.372;2022-09-03T05:23:13;13.759868420899148;;;13.375;81.14411108067047
15558;BME280;7880;50.110;9.372;2022-09-03T05:28:28;13.78003837876604;;;13.375;81.5428603589958
15558;BME280;7880;50.110;9.372;2022-09-03T05:33:23;13.815335816238075;;;13.5;80.48840275973315
15558;BME280;7880;50.110;9.372;2022-09-03T05:38:26;13.790123359445715;;;13.437;80.7239655222811
15558;BME280;7880;50.110;9.372;2022-09-03T05:42:00;13.679188635997708;;;13.375;80.30553212016353
15558;BME280;7880;50.110;9.372;2022-09-03T05:47:08;13.759868420899148;;;13.312;79.74740009870702
15558;BME280;7880;50.110;9.372;2022-09-03T05:52:09;13.860718256799737;;;13.437;79.82611119478715
15558;BME280;7880;50.110;9.372;2022-09-03T05:57:17;13.800208341289544;;;13.5;78.3009942505842
15558;BME280;7880;50.110;9.372;2022-09-03T06:02:14;14.032163245003904;;;13.687;78.98509257699756
15558;BME280;7880;50.110;9.372;2022-09-03T06:07:20;14.01199322892935;;;13.75;75.99489397094334
15558;BME280;7880;50.110;9.372;2022-09-03T06:12:23;14.193523541238392;;;13.875;76.30809558249861
15558;BME280;7880;50.110;9.372;2022-09-03T06:17:26;14.344799089623848;;;14.062;76.8043820140084
15558;BME280;7880;50.110;9.372;2022-09-03T06:22:30;14.243948694929713;;;14.0;74.8221637688632
15558;BME280;7880;50.110;9.372;2022-09-03T06:27:32;14.233863661863143;;;14.062;73.61147190688504
15558;BME280;7880;50.110;9.372;2022-09-03T06:32:42;14.395224330626661;;;14.187;73.5400805995795
15558;BME280;7880;50.110;9.372;2022-09-03T06:37:40;14.586840511864285;;;14.312;72.7167971241661
15558;BME280;7880;50.110;9.372;2022-09-03T06:42:43;15.585268466552952;;;15.187;69.64445715593173
15558;BME280;7880;50.110;9.372;2022-09-03T06:47:55;14.894435786851682;;;14.937;70.4337479932617
15558;BME280;7880;50.110;9.372;2022-09-03T06:52:54;14.859137913404265;;;14.687;72.31905596287861
15558;BME280;7880;50.110;9.372;2022-09-03T06:58:03;14.838967706408585;;;14.625;71.04120262808233
15558;BME280;7880;50.110;9.372;2022-09-03T07:03:07;14.965031576529146;;;14.75;70.6360200086152
15558;BME280;7880;50.110;9.372;2022-09-03T07:08:05;14.995286932424643;;;14.812;70.12215395230658
15558;BME280;7880;50.110;9.372;2022-09-03T07:13:08;15.065882803592832;;;14.875;70.2445972379907
15558;BME280;7880;50.110;9.372;2022-09-03T07:18:14;14.980159253167221;;;14.812;69.50362392033192
15558;BME280;7880;50.110;9.372;2022-09-03T07:23:17;15.126393595710397;;;14.875;70.07351575221257
15558;BME280;7880;50.110;9.372;2022-09-03T07:28:25;15.050755112111801;;;14.875;69.07230307822067
15558;BME280;7880;50.110;9.372;2022-09-03T07:33:22;15.207074717059731;;;15.0;68.97722924420056
15558;BME280;7880;50.110;9.372;2022-09-03T07:38:26;15.267585606966168;;;15.062;69.14145441661456
15558;BME280;7880;50.110;9.372;2022-09-03T07:43:33;15.191947001131485;;;15.0;68.86959956600582
15558;BME280;7880;50.110;9.372;2022-09-03T07:48:34;15.23228758276091;;;15.062;67.60450550001647
15558;BME280;7880;50.110;9.372;2022-09-03T07:53:37;15.23228758276091;;;15.062;67.68976613270425
15558;BME280;7880;50.110;9.372;2022-09-03T07:58:41;15.292798490129645;;;15.125;67.5820842602131
15558;BME280;7880;50.110;9.372;2022-09-03T08:03:45;15.20203214479261;;;15.0;67.72494464651815
15558;BME280;7880;50.110;9.372;2022-09-03T08:08:48;15.333139118325198;;;15.062;68.73067879599591
15558;BME280;7880;50.110;9.372;2022-09-03T08:13:58;15.403735262487317;;;15.187;68.97558951437036
15558;BME280;7880;50.110;9.372;2022-09-03T08:18:56;15.53484253869974;;;15.187;68.89452369578744
15558;BME280;7880;50.110;9.372;2022-09-03T08:24:03;15.953378621581942;;;15.75;66.13857291038578
15558;BME280;7880;50.110;9.372;2022-09-03T08:29:04;16.442513692943614;;;16.437;63.03673576831499
15558;BME280;7880;50.110;9.372;2022-09-03T08:34:07;16.119785091100493;;;16.0;64.11900837393782
15558;BME280;7880;50.110;9.372;2022-09-03T08:39:11;16.42234312040382;;;16.25;64.45851379916941
15558;BME280;7880;50.110;9.372;2022-09-03T08:44:20;16.467726915166715;;;16.312;63.51444103248799
15558;BME280;7880;50.110;9.372;2022-09-03T08:49:23;16.891310136415996;;;16.687;62.28636706680233
15558;BME280;7880;50.110;9.372;2022-09-03T08:54:24;17.138401297159724;;;17.0;62.27362403015111
15558;BME280;7880;50.110;9.372;2022-09-03T08:59:33;17.22916965415352;;;17.125;61.58168727805759
15558;BME280;7880;50.110;9.372;2022-09-03T09:04:38;17.072846431308427;;;16.937;60.83853417931832
15558;BME280;7880;50.110;9.372;2022-09-03T09:09:40;17.314895411231554;;;17.187;61.25920718249684
15558;BME280;7880;50.110;9.372;2022-09-03T09:14:44;17.435920152650215;;;17.312;61.29261832324585
15558;BME280;7880;50.110;9.372;2022-09-03T09:19:51;17.36532236644998;;;17.312;60.82736084030509
15558;BME280;7880;50.110;9.372;2022-09-03T09:24:46;17.264468485116957;;;17.187;60.46790175095725
15558;BME280;7880;50.110;9.372;2022-09-03T09:29:54;17.4813044739014;;;17.312;60.43099947281931
15558;BME280;7880;50.110;9.372;2022-09-03T09:34:55;17.360279669618468;;;17.187;61.417254575160115
15558;BME280;7880;50.110;9.372;2022-09-03T09:40:04;17.37540776098613;;;17.187;64.04046559256459
15558;BME280;7880;50.110;9.372;2022-09-03T09:45:09;16.941736847162247;;;16.75;67.92665007728849
15558;BME280;7880;50.110;9.372;2022-09-03T09:50:17;17.09805983543047;;;16.75;71.10387670145253
15558;BME280;7880;50.110;9.372;2022-09-03T09:55:15;17.219084276497597;;;16.937;69.78137493465934
15558;BME280;7880;50.110;9.372;2022-09-03T10:00:18;17.531731525162467;;;17.187;70.4520958292731
15558;BME280;7880;50.110;9.372;2022-09-03T10:05:31;17.556945061706937;;;17.312;68.8210321802941
15558;BME280;7880;50.110;9.372;2022-09-03T10:10:25;17.743525458272778;;;17.437;68.81826614906537
15558;BME280;7880;50.110;9.372;2022-09-03T10:15:32;17.50147529091337;;;17.312;67.40852222109415
15558;BME280;7880;50.110;9.372;2022-09-03T10:20:43;17.77378177634091;;;17.437;68.57930751493438
15558;BME280;7880;50.110;9.372;2022-09-03T10:25:53;17.950277173891664;;;17.625;66.89746001709096
15558;BME280;7880;50.110;9.372;2022-09-03T10:30:52;18.40916687604622;;;18.125;65.34931851875264
15558;BME280;7880;50.110;9.372;2022-09-03T10:35:51;17.96540536741377;;;17.937;64.21575031569184
15558;BME280;7880;50.110;9.372;2022-09-03T10:40:53;17.824208996404195;;;17.625;64.28228980597181
15558;BME280;7880;50.110;9.372;2022-09-03T10:46:15;17.945234443299704;;;17.687;65.07855496492101
15558;BME280;7880;50.110;9.372;2022-09-03T10:51:18;18.025918167695636;;;17.75;64.42878360488675
15558;BME280;7880;50.110;9.372;2022-09-03T10:56:24;18.0208754327381;;;17.75;64.65391996853822
15558;BME280;7880;50.110;9.372;2022-09-03T11:01:30;17.950277173891664;;;17.75;64.26850473498948
15558;BME280;7880;50.110;9.372;2022-09-03T11:06:29;18.005747229611735;;;17.875;63.7887280234187
15558;BME280;7880;50.110;9.372;2022-09-03T11:11:40;18.489851028850534;;;18.125;64.41952049974265
15558;BME280;7880;50.110;9.372;2022-09-03T11:16:37;18.32848279774771;;;18.187;62.57743344290096
15558;BME280;7880;50.110;9.372;2022-09-03T11:21:38;18.419252391072224;;;18.25;60.93722109933547
15558;BME280;7880;50.110;9.372;2022-09-03T11:26:43;18.504979315795936;;;18.25;61.404369684819855
15558;BME280;7880;50.110;9.372;2022-09-03T11:31:54;18.78233170733438;;;18.5;60.51507053373088
15558;BME280;7880;50.110;9.372;2022-09-03T11:36:51;18.91848683990538;;;18.687;60.40367163584341
15558;BME280;7880;50.110;9.372;2022-09-03T11:41:58;18.979000300262122;;;18.75;60.01898135579132
15558;BME280;7880;50.110;9.372;2022-09-03T11:46:58;19.13532693349407;;;18.875;60.32865966579281
15558;BME280;7880;50.110;9.372;2022-09-03T11:52:09;19.165583733521636;;;19.0;59.28469665844406
15558;BME280;7880;50.110;9.372;2022-09-03T11:57:39;19.331996320956385;;;19.125;58.24661675581704
15558;BME280;7880;50.110;9.372;2022-09-03T12:02:25;19.45806667395518;;;19.187;58.34960436044784
15558;BME280;7880;50.110;9.372;2022-09-03T12:07:37;20.01277838810929;;;19.687;56.78696075237745
15558;BME280;7880;50.110;9.372;2022-09-03T12:12:41;20.08842116743326;;;20.0;55.75222190866915
15558;BME280;7880;50.110;9.372;2022-09-03T12:17:45;20.854938358440997;;;20.562;54.47766014066573
15558;BME280;7880;50.110;9.372;2022-09-03T12:22:40;20.35569284549565;;;20.375;54.38857752318514
15558;BME280;7880;50.110;9.372;2022-09-03T12:27:45;21.071783257654168;;;20.937;54.409865817497725
15558;BME280;7880;50.110;9.372;2022-09-03T12:32:49;21.0667403469095;;;21.062;53.444577166626026
15558;BME280;7880;50.110;9.372;2022-09-03T12:37:51;21.21298487666645;;;21.25;53.200154296057306
15558;BME280;7880;50.110;9.372;2022-09-03T12:42:54;21.2331565551518;;;21.187;54.18265140263859
15558;BME280;7880;50.110;9.372;2022-09-03T12:48:00;21.621462273597718;;;21.562;53.85482207772415
15558;BME280;7880;50.110;9.372;2022-09-03T12:53:08;21.42983066441957;;;21.437;53.96736437032004
15558;BME280;7880;50.110;9.372;2022-09-03T12:58:10;21.42983066441957;;;21.375;54.3743122117729
15558;BME280;7880;50.110;9.372;2022-09-03T13:03:16;21.565989922458538;;;21.5;54.590991586806446
15558;BME280;7880;50.110;9.372;2022-09-03T13:08:19;21.339057943597435;;;21.25;55.57499454000254
15558;BME280;7880;50.110;9.372;2022-09-03T13:13:23;20.668351317761697;;;20.687;56.75011520467503
15558;BME280;7880;50.110;9.372;2022-09-03T13:18:29;20.74903755672858;;;20.625;57.6953699407696
15558;BME280;7880;50.110;9.372;2022-09-03T13:23:39;20.915453159902246;;;20.75;57.155940197781085
15558;BME280;7880;50.110;9.372;2022-09-03T13:28:43;21.46513119242736;;;21.25;57.18515520673129
15558;BME280;7880;50.110;9.372;2022-09-03T13:33:42;21.283585771737854;;;21.25;57.10143543750616
15558;BME280;7880;50.110;9.372;2022-09-03T13:38:52;21.323929165961452;;;21.125;57.74808929950916
15558;BME280;7880;50.110;9.372;2022-09-03T13:43:50;21.344100870058174;;;21.25;57.36962290913384
15558;BME280;7880;50.110;9.372;2022-09-03T13:50:24;20.98101090877899;;;20.812;58.84264533885025
15558;BME280;7880;50.110;9.372;2022-09-03T13:55:08;21.04152579755173;;;20.875;58.90504817124308
15558;BME280;7880;50.110;9.372;2022-09-03T14:00:22;21.586161682434614;;;21.375;58.33986978006016
15558;BME280;7880;50.110;9.372;2022-09-03T14:05:16;22.004726752731948;;;21.937;56.9261316310947
15558;BME280;7880;50.110;9.372;2022-09-03T14:10:22;21.495388799213107;;;21.5;57.777401711152095
15558;BME280;7880;50.110;9.372;2022-09-03T14:15:21;21.43991652810946;;;21.375;58.289823180497315
15558;BME280;7880;50.110;9.372;2022-09-03T14:20:27;21.72736413265229;;;21.562;58.183630886443
15558;BME280;7880;50.110;9.372;2022-09-03T14:25:33;21.90891047535115;;;21.812;57.04147278605249
15558;BME280;7880;50.110;9.372;2022-09-03T14:30:40;21.81309430303518;;;21.812;57.39548489612363
15558;BME280;7880;50.110;9.372;2022-09-03T14:35:50;21.46513119242736;;;21.437;58.73536913825821
15558;BME280;7880;50.110;9.372;2022-09-03T14:40:44;21.122212381107964;;;21.0;59.304103681924644
15558;BME280;7880;50.110;9.372;2022-09-03T14:45:55;21.076826168689877;;;20.937;59.67001291316694
15558;BME280;7880;50.110;9.372;2022-09-03T14:51:02;21.071783257654168;;;20.875;60.34088397741611
15558;BME280;7880;50.110;9.372;2022-09-03T14:56:04;21.071783257654168;;;20.875;60.01616615130078
15558;BME280;7880;50.110;9.372;2022-09-03T15:01:00;21.01126834792667;;;20.812;60.06727028416917
15558;BME280;7880;50.110;9.372;2022-09-03T15:06:06;21.01126834792667;;;20.812;60.44063642578019
15558;BME280;7880;50.110;9.372;2022-09-03T15:11:13;21.071783257654168;;;20.875;59.426182166342
15558;BME280;7880;50.110;9.372;2022-09-03T15:16:17;21.02639707142953;;;20.812;60.143786194011696
15558;BME280;7880;50.110;9.372;2022-09-03T15:21:18;21.122212381107964;;;20.875;59.50982873334136
15558;BME280;7880;50.110;9.372;2022-09-03T15:26:31;21.40461601028801;;;21.125;58.727125905216624
15558;BME280;7880;50.110;9.372;2022-09-03T15:31:21;21.666848768905037;;;21.437;58.79899021600832
15558;BME280;7880;50.110;9.372;2022-09-03T15:36:26;21.737450030684705;;;21.562;58.292552037842285
15558;BME280;7880;50.110;9.372;2022-09-03T15:41:33;21.42478773301118;;;21.312;59.24821335249063
15558;BME280;7880;50.110;9.372;2022-09-03T15:46:44;21.25837115980685;;;21.187;59.364806902408645
15558;BME280;7880;50.110;9.372;2022-09-03T15:50:30;21.308800390944818;;;21.125;59.23724578898024
15558;BME280;7880;50.110;9.372;2022-09-03T15:55:31;21.15246986915008;;;21.0;59.27307299626547
15558;BME280;7880;50.110;9.372;2022-09-03T16:00:30;21.238199475500732;;;21.0;60.073165189359514
15558;BME280;7880;50.110;9.372;2022-09-03T16:05:40;21.303757466521347;;;21.125;60.00603255959855
15558;BME280;7880;50.110;9.372;2022-09-03T16:10:53;21.323929165961452;;;21.125;60.082846545920845
15558;BME280;7880;50.110;9.372;2022-09-03T16:15:47;21.25332823829376;;;21.062;60.27424323256275
15558;BME280;7880;50.110;9.372;2022-09-03T16:20:53;21.303757466521347;;;21.125;60.179310498697525
15558;BME280;7880;50.110;9.372;2022-09-03T16:25:55;21.031439979845892;;;20.875;61.172071903973816
15558;BME280;7880;50.110;9.372;2022-09-03T16:31:03;20.88519575393293;;;20.687;61.640292097235374
15558;BME280;7880;50.110;9.372;2022-09-03T16:36:10;20.87006705487729;;;20.625;61.75303152595693
15558;BME280;7880;50.110;9.372;2022-09-03T16:41:13;20.910410258179763;;;20.625;61.80927303837759
15558;BME280;7880;50.110;9.372;2022-09-03T16:46:22;20.965882193134167;;;20.687;60.649327531645895
15558;BME280;7880;50.110;9.372;2022-09-03T16:51:16;20.89023865420022;;;20.687;61.0781450541073
15558;BME280;7880;50.110;9.372;2022-09-03T16:56:31;20.945710576348937;;;20.75;61.486689255499776
15558;BME280;7880;50.110;9.372;2022-09-03T17:01:28;20.859981256962055;;;20.625;61.31991363702133
15558;BME280;7880;50.110;9.372;2022-09-03T17:06:30;20.71878020838485;;;20.5;62.074596060807735
15558;BME280;7880;50.110;9.372;2022-09-03T17:11:42;20.703651538142005;;;20.5;62.273729030139094
15558;BME280;7880;50.110;9.372;2022-09-03T17:16:40;20.42629304789589;;;20.187;65.41642063897407
15558;BME280;7880;50.110;9.372;2022-09-03T17:21:41;20.275006969744574;;;20.0;66.11892391692038
15558;BME280;7880;50.110;9.372;2022-09-03T17:26:43;20.15397829581634;;;19.875;66.90361648768962
15558;BME280;7880;50.110;9.372;2022-09-03T17:31:46;20.08842116743326;;;19.75;66.40886020204039
15558;BME280;7880;50.110;9.372;2022-09-03T17:37:01;19.861493025912203;;;19.562;68.70990668042855
15558;BME280;7880;50.110;9.372;2022-09-03T17:42:01;19.700122261611977;;;19.375;69.01074529640657
15558;BME280;7880;50.110;9.372;2022-09-03T17:47:16;19.624479818437248;;;19.25;69.54337479297625
15558;BME280;7880;50.110;9.372;2022-09-03T17:52:24;19.51858050800511;;;19.187;70.10040731015474
15558;BME280;7880;50.110;9.372;2022-09-03T17:57:21;19.46815231005312;;;19.125;70.29564204202296
15558;BME280;7880;50.110;9.372;2022-09-03T18:02:30;19.513537686900236;;;19.187;69.81504266852664
15558;BME280;7880;50.110;9.372;2022-09-03T18:07:37;19.362253189086914;;;19.125;70.4060886147199
15558;BME280;7880;50.110;9.372;2022-09-03T18:12:42;19.24626858481788;;;18.875;71.1980395312437
15558;BME280;7880;50.110;9.372;2022-09-03T18:17:43;19.20592614985653;;;18.812;71.36686741103073
15558;BME280;7880;50.110;9.372;2022-09-03T20:13:16;17.60737215662375;;;17.187;79.79687644584163
15558;BME280;7880;50.110;9.372;2022-09-03T20:18:23;17.461133661546047;;;17.062;80.64190853650423
15558;BME280;7880;50.110;9.372;2022-09-03T20:23:29;17.380450458690756;;;16.937;80.39928475757063
15558;BME280;7880;50.110;9.372;2022-09-03T20:28:34;17.395578553550877;;;17.062;80.51812333322935
15558;BME280;7880;50.110;9.372;2022-09-03T20:33:36;17.158572035009275;;;16.875;81.38522603080622
15558;BME280;7880;50.110;9.372;2022-09-03T20:38:57;17.0072916146426;;;16.562;82.2811682240257
15558;BME280;7880;50.110;9.372;2022-09-03T20:43:53;17.05771839232766;;;16.562;81.8334264501717
15558;BME280;7880;50.110;9.372;2022-09-03T20:48:50;17.11823056396679;;;16.625;81.40251643224086
15558;BME280;7880;50.110;9.372;2022-09-03T20:54:01;16.765243486879626;;;16.437;83.06032875361117
15558;BME280;7880;50.110;9.372;2022-09-03T20:59:02;16.659347641840576;;;16.25;83.43778295591892
15558;BME280;7880;50.110;9.372;2022-09-03T21:04:16;16.876182128867367;;;16.312;82.3902800450927
15558;BME280;7880;50.110;9.372;2022-09-03T21:09:07;16.654304985754425;;;16.062;83.31487067433098
15558;BME280;7880;50.110;9.372;2022-09-03T21:14:14;16.75515816277475;;;16.187;82.5322853642428
15558;BME280;7880;50.110;9.372;2022-09-03T21:19:21;16.331575601600342;;;15.875;84.15835674995259
15558;BME280;7880;50.110;9.372;2022-09-03T21:24:18;16.412257835880155;;;15.875;83.32147223058372
15558;BME280;7880;50.110;9.372;2022-09-03T21:29:22;16.321490327554056;;;15.812;83.72667774687785
15558;BME280;7880;50.110;9.372;2022-09-03T21:34:28;15.918080320308217;;;15.437;85.40985612747836
15558;BME280;7880;50.110;9.372;2022-09-03T21:39:30;15.938250776432687;;;15.437;85.91108637272033
15558;BME280;7880;50.110;9.372;2022-09-03T21:44:52;16.008847409539158;;;15.5;84.4745058117563
15558;BME280;7880;50.110;9.372;2022-09-03T21:49:39;15.897909868840362;;;15.375;85.4501123624795
15558;BME280;7880;50.110;9.372;2022-09-03T21:54:42;15.731503821909428;;;15.125;85.63348114555389
15558;BME280;7880;50.110;9.372;2022-09-03T21:59:55;15.786972469004104;;;15.187;84.80100261521562
15558;BME280;7880;50.110;9.372;2022-09-03T22:04:48;15.771844652667642;;;15.125;83.99243973263133
15558;BME280;7880;50.110;9.372;2022-09-03T22:09:55;15.721418617130258;;;15.125;83.68976168276639
15558;BME280;7880;50.110;9.372;2022-09-03T22:15:12;15.489459228515624;;;14.937;84.81647863761688
15558;BME280;7880;50.110;9.372;2022-09-03T22:20:02;15.454161114670569;;;14.812;84.1230287232266
15558;BME280;7880;50.110;9.372;2022-09-03T22:25:09;15.459203701489605;;;14.875;84.34108075421443
15558;BME280;7880;50.110;9.372;2022-09-03T22:30:19;15.227245009038597;;;14.75;85.09015507348566
15558;BME280;7880;50.110;9.372;2022-09-03T22:35:29;15.171776717301691;;;14.625;85.60877755934168
15558;BME280;7880;50.110;9.372;2022-09-03T22:40:24;15.23228758276091;;;14.625;85.14371681642578
15558;BME280;7880;50.110;9.372;2022-09-03T22:45:45;14.934776231111027;;;14.375;86.12806537064219